sensor_id;sensor_type;location;lat;lon;timestamp;P1;durP1;ratioP1;P2;durP2;ratioP2
60454;SDS011;54989;53.398;6.564;2022-07-23T00:00:44;0.40;;;0.40;;
60454;SDS011;54989;53.398;6.564;2022-07-23T00:03:13;0.57;;;0.57;;
60454;SDS011;54989;53.398;6.564;2022-07-23T00:05:40;0.43;;;0.43;;
60454;SDS011;54989;53.398;6.564;2022-07-23T00:08:08;0.82;;;0.70;;
60454;SDS011;54989;53.398;6.564;2022-07-23T00:10:40;0.50;;;0.50;;
60454;SDS011;54989;53.398;6.564;2022-07-23T00:13:07;0.50;;;0.50;;
60454;SDS011;54989;53.398;6.564;2022-07-23T00:15:35;0.57;;;0.40;;
60454;SDS011;54989;53.398;6.564;2022-07-23T00:18:02;0.57;;;0.50;;
60454;SDS011;54989;53.398;6.564;2022-07-23T00:20:30;0.85;;;0.75;;
60454;SDS011;54989;53.398;6.564;2022-07-23T00:22:57;0.50;;;0.50;;
60454;SDS011;54989;53.398;6.564;2022-07-23T00:25:24;0.82;;;0.60;;
60454;SDS011;54989;53.398;6.564;2022-07-23T00:27:57;0.95;;;0.82;;
60454;SDS011;54989;53.398;6.564;2022-07-23T00:30:25;0.60;;;0.60;;
60454;SDS011;54989;53.398;6.564;2022-07-23T00:32:58;0.65;;;0.65;;
60454;SDS011;54989;53.398;6.564;2022-07-23T00:35:28;0.45;;;0.45;;
60454;SDS011;54989;53.398;6.564;2022-07-23T00:37:58;0.70;;;0.70;;
60454;SDS011;54989;53.398;6.564;2022-07-23T00:40:27;1.27;;;0.65;;
60454;SDS011;54989;53.398;6.564;2022-07-23T00:42:56;0.85;;;0.60;;
60454;SDS011;54989;53.398;6.564;2022-07-23T00:45:23;0.40;;;0.40;;
60454;SDS011;54989;53.398;6.564;2022-07-23T00:47:50;0.70;;;0.70;;
60454;SDS011;54989;53.398;6.564;2022-07-23T00:50:18;1.08;;;0.60;;
60454;SDS011;54989;53.398;6.564;2022-07-23T00:52:46;0.70;;;0.70;;
60454;SDS011;54989;53.398;6.564;2022-07-23T00:55:13;0.50;;;0.50;;
60454;SDS011;54989;53.398;6.564;2022-07-23T00:57:41;0.43;;;0.43;;
60454;SDS011;54989;53.398;6.564;2022-07-23T01:00:10;0.50;;;0.50;;
60454;SDS011;54989;53.398;6.564;2022-07-23T01:02:40;0.88;;;0.70;;
60454;SDS011;54989;53.398;6.564;2022-07-23T01:05:09;0.75;;;0.65;;
60454;SDS011;54989;53.398;6.564;2022-07-23T01:07:37;0.63;;;0.63;;
60454;SDS011;54989;53.398;6.564;2022-07-23T01:10:05;0.82;;;0.75;;
60454;SDS011;54989;53.398;6.564;2022-07-23T01:12:54;0.43;;;0.43;;
60454;SDS011;54989;53.398;6.564;2022-07-23T01:15:21;0.82;;;0.68;;
60454;SDS011;54989;53.398;6.564;2022-07-23T01:17:49;0.50;;;0.50;;
60454;SDS011;54989;53.398;6.564;2022-07-23T01:20:17;0.50;;;0.50;;
60454;SDS011;54989;53.398;6.564;2022-07-23T01:22:45;0.70;;;0.70;;
60454;SDS011;54989;53.398;6.564;2022-07-23T01:25:13;0.73;;;0.73;;
60454;SDS011;54989;53.398;6.564;2022-07-23T01:27:47;1.52;;;0.88;;
60454;SDS011;54989;53.398;6.564;2022-07-23T01:30:15;0.50;;;0.50;;
60454;SDS011;54989;53.398;6.564;2022-07-23T01:32:42;0.60;;;0.57;;
60454;SDS011;54989;53.398;6.564;2022-07-23T01:35:10;0.90;;;0.70;;
60454;SDS011;54989;53.398;6.564;2022-07-23T01:37:38;1.27;;;0.60;;
60454;SDS011;54989;53.398;6.564;2022-07-23T01:40:07;0.70;;;0.70;;
60454;SDS011;54989;53.398;6.564;2022-07-23T01:42:36;0.65;;;0.65;;
60454;SDS011;54989;53.398;6.564;2022-07-23T01:45:09;0.52;;;0.50;;
60454;SDS011;54989;53.398;6.564;2022-07-23T01:47:39;0.57;;;0.57;;
60454;SDS011;54989;53.398;6.564;2022-07-23T01:50:07;0.50;;;0.50;;
60454;SDS011;54989;53.398;6.564;2022-07-23T01:52:40;0.70;;;0.70;;
60454;SDS011;54989;53.398;6.564;2022-07-23T01:55:08;0.60;;;0.47;;
60454;SDS011;54989;53.398;6.564;2022-07-23T01:57:45;0.50;;;0.50;;
60454;SDS011;54989;53.398;6.564;2022-07-23T02:00:16;0.57;;;0.57;;
60454;SDS011;54989;53.398;6.564;2022-07-23T02:02:47;0.63;;;0.55;;
60454;SDS011;54989;53.398;6.564;2022-07-23T02:05:14;0.50;;;0.50;;
60454;SDS011;54989;53.398;6.564;2022-07-23T02:07:44;0.85;;;0.63;;
60454;SDS011;54989;53.398;6.564;2022-07-23T02:10:11;0.50;;;0.50;;
60454;SDS011;54989;53.398;6.564;2022-07-23T02:12:39;0.63;;;0.63;;
60454;SDS011;54989;53.398;6.564;2022-07-23T02:15:08;0.60;;;0.60;;
60454;SDS011;54989;53.398;6.564;2022-07-23T02:17:38;0.60;;;0.60;;
60454;SDS011;54989;53.398;6.564;2022-07-23T02:20:07;0.55;;;0.55;;
60454;SDS011;54989;53.398;6.564;2022-07-23T02:22:36;0.57;;;0.57;;
60454;SDS011;54989;53.398;6.564;2022-07-23T02:25:04;0.55;;;0.55;;
60454;SDS011;54989;53.398;6.564;2022-07-23T02:27:33;0.65;;;0.65;;
60454;SDS011;54989;53.398;6.564;2022-07-23T02:30:03;0.70;;;0.70;;
60454;SDS011;54989;53.398;6.564;2022-07-23T02:32:33;2.10;;;0.60;;
60454;SDS011;54989;53.398;6.564;2022-07-23T02:35:00;0.70;;;0.70;;
60454;SDS011;54989;53.398;6.564;2022-07-23T02:37:29;0.70;;;0.70;;
60454;SDS011;54989;53.398;6.564;2022-07-23T02:39:57;0.57;;;0.57;;
60454;SDS011;54989;53.398;6.564;2022-07-23T02:42:25;0.60;;;0.60;;
60454;SDS011;54989;53.398;6.564;2022-07-23T02:44:52;0.50;;;0.50;;
60454;SDS011;54989;53.398;6.564;2022-07-23T02:47:20;0.70;;;0.70;;
60454;SDS011;54989;53.398;6.564;2022-07-23T02:49:47;0.60;;;0.60;;
60454;SDS011;54989;53.398;6.564;2022-07-23T02:52:14;0.60;;;0.60;;
60454;SDS011;54989;53.398;6.564;2022-07-23T02:54:42;1.75;;;0.57;;
60454;SDS011;54989;53.398;6.564;2022-07-23T02:57:13;0.90;;;0.90;;
60454;SDS011;54989;53.398;6.564;2022-07-23T02:59:41;0.60;;;0.60;;
60454;SDS011;54989;53.398;6.564;2022-07-23T03:02:08;0.70;;;0.70;;
60454;SDS011;54989;53.398;6.564;2022-07-23T03:04:37;0.50;;;0.50;;
60454;SDS011;54989;53.398;6.564;2022-07-23T03:07:04;0.60;;;0.60;;
60454;SDS011;54989;53.398;6.564;2022-07-23T03:09:33;0.68;;;0.68;;
60454;SDS011;54989;53.398;6.564;2022-07-23T03:12:01;0.60;;;0.60;;
60454;SDS011;54989;53.398;6.564;2022-07-23T03:14:36;0.63;;;0.63;;
60454;SDS011;54989;53.398;6.564;2022-07-23T03:17:03;0.82;;;0.60;;
60454;SDS011;54989;53.398;6.564;2022-07-23T03:19:30;0.63;;;0.63;;
60454;SDS011;54989;53.398;6.564;2022-07-23T03:21:58;0.63;;;0.63;;
60454;SDS011;54989;53.398;6.564;2022-07-23T03:24:25;0.68;;;0.68;;
60454;SDS011;54989;53.398;6.564;2022-07-23T03:27:12;0.65;;;0.60;;
60454;SDS011;54989;53.398;6.564;2022-07-23T03:29:40;0.60;;;0.52;;
60454;SDS011;54989;53.398;6.564;2022-07-23T03:32:07;0.60;;;0.60;;
60454;SDS011;54989;53.398;6.564;2022-07-23T03:34:35;0.63;;;0.60;;
60454;SDS011;54989;53.398;6.564;2022-07-23T03:37:03;0.60;;;0.60;;
60454;SDS011;54989;53.398;6.564;2022-07-23T03:39:31;0.50;;;0.50;;
60454;SDS011;54989;53.398;6.564;2022-07-23T03:41:59;1.35;;;0.70;;
60454;SDS011;54989;53.398;6.564;2022-07-23T03:44:26;0.60;;;0.60;;
60454;SDS011;54989;53.398;6.564;2022-07-23T03:46:53;0.93;;;0.80;;
60454;SDS011;54989;53.398;6.564;2022-07-23T03:49:22;0.70;;;0.70;;
60454;SDS011;54989;53.398;6.564;2022-07-23T03:51:49;0.60;;;0.60;;
60454;SDS011;54989;53.398;6.564;2022-07-23T03:54:17;0.52;;;0.52;;
60454;SDS011;54989;53.398;6.564;2022-07-23T03:56:45;0.60;;;0.60;;
60454;SDS011;54989;53.398;6.564;2022-07-23T03:59:12;0.95;;;0.63;;
60454;SDS011;54989;53.398;6.564;2022-07-23T04:01:40;0.90;;;0.70;;
60454;SDS011;54989;53.398;6.564;2022-07-23T04:04:07;0.85;;;0.80;;
60454;SDS011;54989;53.398;6.564;2022-07-23T04:06:37;0.77;;;0.65;;
60454;SDS011;54989;53.398;6.564;2022-07-23T04:09:04;0.60;;;0.60;;
60454;SDS011;54989;53.398;6.564;2022-07-23T04:11:32;0.77;;;0.77;;
60454;SDS011;54989;53.398;6.564;2022-07-23T04:14:00;0.80;;;0.75;;
60454;SDS011;54989;53.398;6.564;2022-07-23T04:16:29;0.73;;;0.73;;
60454;SDS011;54989;53.398;6.564;2022-07-23T04:18:58;0.65;;;0.65;;
60454;SDS011;54989;53.398;6.564;2022-07-23T04:21:30;0.70;;;0.70;;
60454;SDS011;54989;53.398;6.564;2022-07-23T04:23:58;0.52;;;0.52;;
60454;SDS011;54989;53.398;6.564;2022-07-23T04:26:25;0.75;;;0.52;;
60454;SDS011;54989;53.398;6.564;2022-07-23T04:28:52;0.60;;;0.60;;
60454;SDS011;54989;53.398;6.564;2022-07-23T04:31:20;0.80;;;0.80;;
60454;SDS011;54989;53.398;6.564;2022-07-23T04:33:47;0.70;;;0.70;;
60454;SDS011;54989;53.398;6.564;2022-07-23T04:36:15;0.57;;;0.57;;
60454;SDS011;54989;53.398;6.564;2022-07-23T04:38:42;0.50;;;0.50;;
60454;SDS011;54989;53.398;6.564;2022-07-23T04:41:09;0.50;;;0.50;;
60454;SDS011;54989;53.398;6.564;2022-07-23T04:43:38;0.70;;;0.70;;
60454;SDS011;54989;53.398;6.564;2022-07-23T04:46:05;0.65;;;0.50;;
60454;SDS011;54989;53.398;6.564;2022-07-23T04:48:41;0.52;;;0.40;;
60454;SDS011;54989;53.398;6.564;2022-07-23T04:51:09;0.82;;;0.77;;
60454;SDS011;54989;53.398;6.564;2022-07-23T04:53:37;0.98;;;0.70;;
60454;SDS011;54989;53.398;6.564;2022-07-23T04:56:05;0.50;;;0.50;;
60454;SDS011;54989;53.398;6.564;2022-07-23T04:58:32;0.60;;;0.60;;
60454;SDS011;54989;53.398;6.564;2022-07-23T05:01:00;0.60;;;0.60;;
60454;SDS011;54989;53.398;6.564;2022-07-23T05:03:30;0.73;;;0.73;;
60454;SDS011;54989;53.398;6.564;2022-07-23T05:05:57;0.50;;;0.50;;
60454;SDS011;54989;53.398;6.564;2022-07-23T05:08:26;0.60;;;0.60;;
60454;SDS011;54989;53.398;6.564;2022-07-23T05:10:55;0.50;;;0.50;;
60454;SDS011;54989;53.398;6.564;2022-07-23T05:13:23;0.60;;;0.60;;
60454;SDS011;54989;53.398;6.564;2022-07-23T05:15:51;0.55;;;0.55;;
60454;SDS011;54989;53.398;6.564;2022-07-23T05:18:19;0.60;;;0.60;;
60454;SDS011;54989;53.398;6.564;2022-07-23T05:20:47;0.50;;;0.50;;
60454;SDS011;54989;53.398;6.564;2022-07-23T05:23:18;0.50;;;0.50;;
60454;SDS011;54989;53.398;6.564;2022-07-23T05:25:48;0.50;;;0.50;;
60454;SDS011;54989;53.398;6.564;2022-07-23T05:28:17;0.70;;;0.68;;
60454;SDS011;54989;53.398;6.564;2022-07-23T05:30:49;0.50;;;0.50;;
60454;SDS011;54989;53.398;6.564;2022-07-23T05:33:20;0.55;;;0.55;;
60454;SDS011;54989;53.398;6.564;2022-07-23T05:35:47;0.77;;;0.77;;
60454;SDS011;54989;53.398;6.564;2022-07-23T05:38:37;0.60;;;0.60;;
60454;SDS011;54989;53.398;6.564;2022-07-23T05:41:06;0.40;;;0.40;;
60454;SDS011;54989;53.398;6.564;2022-07-23T05:43:33;0.88;;;0.70;;
60454;SDS011;54989;53.398;6.564;2022-07-23T05:46:06;0.88;;;0.30;;
60454;SDS011;54989;53.398;6.564;2022-07-23T05:48:36;0.80;;;0.60;;
60454;SDS011;54989;53.398;6.564;2022-07-23T05:51:12;0.60;;;0.60;;
60454;SDS011;54989;53.398;6.564;2022-07-23T05:53:39;0.65;;;0.65;;
60454;SDS011;54989;53.398;6.564;2022-07-23T05:56:33;0.50;;;0.50;;
60454;SDS011;54989;53.398;6.564;2022-07-23T05:59:00;0.70;;;0.70;;
60454;SDS011;54989;53.398;6.564;2022-07-23T06:01:29;0.50;;;0.50;;
60454;SDS011;54989;53.398;6.564;2022-07-23T06:04:04;0.45;;;0.45;;
60454;SDS011;54989;53.398;6.564;2022-07-23T06:06:35;0.60;;;0.60;;
60454;SDS011;54989;53.398;6.564;2022-07-23T06:09:03;0.70;;;0.70;;
60454;SDS011;54989;53.398;6.564;2022-07-23T06:11:31;0.47;;;0.47;;
60454;SDS011;54989;53.398;6.564;2022-07-23T06:13:58;1.40;;;0.65;;
60454;SDS011;54989;53.398;6.564;2022-07-23T06:16:40;0.50;;;0.50;;
60454;SDS011;54989;53.398;6.564;2022-07-23T06:19:07;0.90;;;0.55;;
60454;SDS011;54989;53.398;6.564;2022-07-23T06:21:34;0.60;;;0.60;;
60454;SDS011;54989;53.398;6.564;2022-07-23T06:24:13;0.60;;;0.60;;
60454;SDS011;54989;53.398;6.564;2022-07-23T06:26:41;0.70;;;0.70;;
60454;SDS011;54989;53.398;6.564;2022-07-23T06:29:08;0.40;;;0.40;;
60454;SDS011;54989;53.398;6.564;2022-07-23T06:31:35;0.50;;;0.50;;
60454;SDS011;54989;53.398;6.564;2022-07-23T06:34:03;1.00;;;0.52;;
60454;SDS011;54989;53.398;6.564;2022-07-23T06:36:30;0.60;;;0.60;;
60454;SDS011;54989;53.398;6.564;2022-07-23T06:38:58;0.60;;;0.60;;
60454;SDS011;54989;53.398;6.564;2022-07-23T06:41:26;0.40;;;0.40;;
60454;SDS011;54989;53.398;6.564;2022-07-23T06:43:54;0.50;;;0.50;;
60454;SDS011;54989;53.398;6.564;2022-07-23T06:46:22;1.35;;;0.82;;
60454;SDS011;54989;53.398;6.564;2022-07-23T06:48:50;0.60;;;0.60;;
60454;SDS011;54989;53.398;6.564;2022-07-23T06:51:17;0.68;;;0.50;;
60454;SDS011;54989;53.398;6.564;2022-07-23T06:53:45;0.50;;;0.43;;
60454;SDS011;54989;53.398;6.564;2022-07-23T06:56:12;0.50;;;0.50;;
60454;SDS011;54989;53.398;6.564;2022-07-23T06:58:40;0.80;;;0.50;;
60454;SDS011;54989;53.398;6.564;2022-07-23T07:01:10;0.50;;;0.50;;
60454;SDS011;54989;53.398;6.564;2022-07-23T07:03:38;0.60;;;0.60;;
60454;SDS011;54989;53.398;6.564;2022-07-23T07:06:05;0.77;;;0.60;;
60454;SDS011;54989;53.398;6.564;2022-07-23T07:08:32;0.43;;;0.43;;
60454;SDS011;54989;53.398;6.564;2022-07-23T07:10:59;1.17;;;0.60;;
60454;SDS011;54989;53.398;6.564;2022-07-23T07:13:27;0.50;;;0.50;;
60454;SDS011;54989;53.398;6.564;2022-07-23T07:15:54;0.45;;;0.40;;
60454;SDS011;54989;53.398;6.564;2022-07-23T07:18:21;0.40;;;0.40;;
60454;SDS011;54989;53.398;6.564;2022-07-23T07:20:49;1.13;;;0.68;;
60454;SDS011;54989;53.398;6.564;2022-07-23T07:23:16;0.50;;;0.50;;
60454;SDS011;54989;53.398;6.564;2022-07-23T07:25:44;0.70;;;0.70;;
60454;SDS011;54989;53.398;6.564;2022-07-23T07:28:11;0.60;;;0.55;;
60454;SDS011;54989;53.398;6.564;2022-07-23T07:30:39;0.65;;;0.45;;
60454;SDS011;54989;53.398;6.564;2022-07-23T07:33:07;0.40;;;0.40;;
60454;SDS011;54989;53.398;6.564;2022-07-23T07:35:34;0.45;;;0.45;;
60454;SDS011;54989;53.398;6.564;2022-07-23T07:38:02;0.75;;;0.45;;
60454;SDS011;54989;53.398;6.564;2022-07-23T07:40:29;0.40;;;0.40;;
60454;SDS011;54989;53.398;6.564;2022-07-23T07:43:00;0.32;;;0.32;;
60454;SDS011;54989;53.398;6.564;2022-07-23T07:45:28;0.75;;;0.50;;
60454;SDS011;54989;53.398;6.564;2022-07-23T07:47:56;0.52;;;0.50;;
60454;SDS011;54989;53.398;6.564;2022-07-23T07:50:24;1.63;;;0.68;;
60454;SDS011;54989;53.398;6.564;2022-07-23T07:52:52;0.45;;;0.45;;
60454;SDS011;54989;53.398;6.564;2022-07-23T07:55:19;0.40;;;0.40;;
60454;SDS011;54989;53.398;6.564;2022-07-23T07:57:46;0.68;;;0.68;;
60454;SDS011;54989;53.398;6.564;2022-07-23T08:00:15;0.40;;;0.40;;
60454;SDS011;54989;53.398;6.564;2022-07-23T08:02:44;0.40;;;0.40;;
60454;SDS011;54989;53.398;6.564;2022-07-23T08:05:13;0.57;;;0.57;;
60454;SDS011;54989;53.398;6.564;2022-07-23T08:07:41;0.30;;;0.30;;
60454;SDS011;54989;53.398;6.564;2022-07-23T08:10:09;0.55;;;0.55;;
60454;SDS011;54989;53.398;6.564;2022-07-23T08:12:46;0.47;;;0.47;;
60454;SDS011;54989;53.398;6.564;2022-07-23T08:15:16;0.45;;;0.45;;
60454;SDS011;54989;53.398;6.564;2022-07-23T08:17:45;0.32;;;0.32;;
60454;SDS011;54989;53.398;6.564;2022-07-23T08:20:15;0.43;;;0.43;;
60454;SDS011;54989;53.398;6.564;2022-07-23T08:22:48;0.52;;;0.52;;
60454;SDS011;54989;53.398;6.564;2022-07-23T08:25:19;0.85;;;0.52;;
60454;SDS011;54989;53.398;6.564;2022-07-23T08:27:57;0.60;;;0.55;;
60454;SDS011;54989;53.398;6.564;2022-07-23T08:30:26;0.60;;;0.50;;
60454;SDS011;54989;53.398;6.564;2022-07-23T08:32:59;0.52;;;0.52;;
60454;SDS011;54989;53.398;6.564;2022-07-23T08:35:57;0.40;;;0.40;;
60454;SDS011;54989;53.398;6.564;2022-07-23T08:38:24;1.25;;;0.50;;
60454;SDS011;54989;53.398;6.564;2022-07-23T08:40:52;0.40;;;0.40;;
60454;SDS011;54989;53.398;6.564;2022-07-23T08:43:22;0.40;;;0.40;;
60454;SDS011;54989;53.398;6.564;2022-07-23T08:45:52;0.80;;;0.60;;
60454;SDS011;54989;53.398;6.564;2022-07-23T08:48:24;0.40;;;0.40;;
60454;SDS011;54989;53.398;6.564;2022-07-23T08:50:54;1.45;;;0.50;;
60454;SDS011;54989;53.398;6.564;2022-07-23T08:53:24;0.40;;;0.40;;
60454;SDS011;54989;53.398;6.564;2022-07-23T08:55:53;0.50;;;0.50;;
60454;SDS011;54989;53.398;6.564;2022-07-23T08:58:22;0.57;;;0.55;;
60454;SDS011;54989;53.398;6.564;2022-07-23T09:00:54;1.67;;;0.50;;
60454;SDS011;54989;53.398;6.564;2022-07-23T09:03:26;0.50;;;0.50;;
60454;SDS011;54989;53.398;6.564;2022-07-23T09:05:56;0.50;;;0.50;;
60454;SDS011;54989;53.398;6.564;2022-07-23T09:08:24;0.60;;;0.40;;
60454;SDS011;54989;53.398;6.564;2022-07-23T09:11:01;0.82;;;0.40;;
60454;SDS011;54989;53.398;6.564;2022-07-23T09:13:34;0.50;;;0.50;;
60454;SDS011;54989;53.398;6.564;2022-07-23T09:16:08;0.55;;;0.47;;
60454;SDS011;54989;53.398;6.564;2022-07-23T09:18:44;0.47;;;0.47;;
60454;SDS011;54989;53.398;6.564;2022-07-23T09:21:35;0.55;;;0.55;;
60454;SDS011;54989;53.398;6.564;2022-07-23T09:26:35;0.43;;;0.43;;
60454;SDS011;54989;53.398;6.564;2022-07-23T09:31:43;0.57;;;0.50;;
60454;SDS011;54989;53.398;6.564;2022-07-23T09:39:37;0.60;;;0.60;;
60454;SDS011;54989;53.398;6.564;2022-07-23T09:42:20;0.90;;;0.60;;
60454;SDS011;54989;53.398;6.564;2022-07-23T09:44:52;0.55;;;0.50;;
60454;SDS011;54989;53.398;6.564;2022-07-23T09:47:21;1.08;;;0.55;;
60454;SDS011;54989;53.398;6.564;2022-07-23T09:52:36;0.45;;;0.45;;
60454;SDS011;54989;53.398;6.564;2022-07-23T09:57:45;0.60;;;0.60;;
60454;SDS011;54989;53.398;6.564;2022-07-23T10:00:17;0.93;;;0.50;;
60454;SDS011;54989;53.398;6.564;2022-07-23T10:02:46;0.80;;;0.80;;
60454;SDS011;54989;53.398;6.564;2022-07-23T10:05:40;0.93;;;0.93;;
60454;SDS011;54989;53.398;6.564;2022-07-23T10:08:28;1.45;;;1.35;;
60454;SDS011;54989;53.398;6.564;2022-07-23T10:11:17;1.80;;;1.70;;
60454;SDS011;54989;53.398;6.564;2022-07-23T10:13:53;2.78;;;1.92;;
60454;SDS011;54989;53.398;6.564;2022-07-23T10:16:42;3.22;;;2.67;;
60454;SDS011;54989;53.398;6.564;2022-07-23T10:19:10;3.83;;;2.60;;
60454;SDS011;54989;53.398;6.564;2022-07-23T10:21:41;4.13;;;3.13;;
60454;SDS011;54989;53.398;6.564;2022-07-23T10:27:58;7.68;;;6.20;;
60454;SDS011;54989;53.398;6.564;2022-07-23T10:30:03;9.23;;;5.50;;
60454;SDS011;54989;53.398;6.564;2022-07-23T10:32:37;9.55;;;6.55;;
60454;SDS011;54989;53.398;6.564;2022-07-23T10:35:07;7.20;;;5.97;;
60454;SDS011;54989;53.398;6.564;2022-07-23T10:37:43;11.25;;;7.15;;
60454;SDS011;54989;53.398;6.564;2022-07-23T10:40:18;15.00;;;8.60;;
60454;SDS011;54989;53.398;6.564;2022-07-23T10:42:48;14.70;;;9.98;;
60454;SDS011;54989;53.398;6.564;2022-07-23T10:45:35;14.32;;;9.73;;
60454;SDS011;54989;53.398;6.564;2022-07-23T10:50:41;17.27;;;9.10;;
60454;SDS011;54989;53.398;6.564;2022-07-23T10:53:10;15.98;;;9.52;;
60454;SDS011;54989;53.398;6.564;2022-07-23T10:55:41;14.43;;;10.57;;
60454;SDS011;54989;53.398;6.564;2022-07-23T10:58:11;13.98;;;9.65;;
60454;SDS011;54989;53.398;6.564;2022-07-23T11:00:46;15.40;;;9.98;;
60454;SDS011;54989;53.398;6.564;2022-07-23T11:03:30;13.20;;;9.48;;
60454;SDS011;54989;53.398;6.564;2022-07-23T11:05:59;12.98;;;8.70;;
60454;SDS011;54989;53.398;6.564;2022-07-23T11:08:26;12.63;;;9.00;;
60454;SDS011;54989;53.398;6.564;2022-07-23T11:32:04;12.93;;;9.57;;
60454;SDS011;54989;53.398;6.564;2022-07-23T11:34:35;12.43;;;9.25;;
60454;SDS011;54989;53.398;6.564;2022-07-23T11:37:10;14.98;;;9.63;;
60454;SDS011;54989;53.398;6.564;2022-07-23T11:39:39;12.88;;;9.02;;
60454;SDS011;54989;53.398;6.564;2022-07-23T11:42:07;14.60;;;9.98;;
60454;SDS011;54989;53.398;6.564;2022-07-23T11:44:37;14.43;;;10.55;;
60454;SDS011;54989;53.398;6.564;2022-07-23T11:47:07;13.30;;;9.55;;
60454;SDS011;54989;53.398;6.564;2022-07-23T11:49:37;13.23;;;9.57;;
60454;SDS011;54989;53.398;6.564;2022-07-23T11:52:05;11.98;;;9.32;;
60454;SDS011;54989;53.398;6.564;2022-07-23T11:54:35;12.27;;;8.65;;
60454;SDS011;54989;53.398;6.564;2022-07-23T11:57:06;11.18;;;8.70;;
60454;SDS011;54989;53.398;6.564;2022-07-23T11:59:33;11.10;;;8.32;;
60454;SDS011;54989;53.398;6.564;2022-07-23T12:02:04;11.40;;;8.77;;
60454;SDS011;54989;53.398;6.564;2022-07-23T12:07:33;11.38;;;8.55;;
60454;SDS011;54989;53.398;6.564;2022-07-23T12:12:43;12.45;;;8.63;;
60454;SDS011;54989;53.398;6.564;2022-07-23T12:15:20;9.68;;;7.40;;
60454;SDS011;54989;53.398;6.564;2022-07-23T12:20:20;11.02;;;7.88;;
60454;SDS011;54989;53.398;6.564;2022-07-23T12:25:23;10.13;;;7.40;;
60454;SDS011;54989;53.398;6.564;2022-07-23T12:28:06;10.70;;;7.90;;
60454;SDS011;54989;53.398;6.564;2022-07-23T12:30:38;12.20;;;7.50;;
60454;SDS011;54989;53.398;6.564;2022-07-23T12:33:08;10.43;;;7.78;;
60454;SDS011;54989;53.398;6.564;2022-07-23T12:35:38;11.48;;;7.63;;
60454;SDS011;54989;53.398;6.564;2022-07-23T12:38:09;10.77;;;7.25;;
60454;SDS011;54989;53.398;6.564;2022-07-23T12:40:43;11.23;;;7.50;;
60454;SDS011;54989;53.398;6.564;2022-07-23T12:43:18;8.65;;;7.15;;
60454;SDS011;54989;53.398;6.564;2022-07-23T12:46:02;10.05;;;7.45;;
60454;SDS011;54989;53.398;6.564;2022-07-23T12:48:34;8.52;;;6.93;;
60454;SDS011;54989;53.398;6.564;2022-07-23T12:51:05;8.63;;;7.20;;
60454;SDS011;54989;53.398;6.564;2022-07-23T12:56:34;7.78;;;6.45;;
60454;SDS011;54989;53.398;6.564;2022-07-23T12:59:09;9.45;;;6.93;;
60454;SDS011;54989;53.398;6.564;2022-07-23T13:01:59;8.73;;;6.85;;
60454;SDS011;54989;53.398;6.564;2022-07-23T13:04:25;8.75;;;6.88;;
60454;SDS011;54989;53.398;6.564;2022-07-23T13:06:54;8.73;;;6.82;;
60454;SDS011;54989;53.398;6.564;2022-07-23T13:09:26;9.05;;;6.45;;
60454;SDS011;54989;53.398;6.564;2022-07-23T13:11:58;7.45;;;6.30;;
60454;SDS011;54989;53.398;6.564;2022-07-23T13:14:26;7.88;;;6.18;;
60454;SDS011;54989;53.398;6.564;2022-07-23T13:16:55;7.35;;;6.10;;
60454;SDS011;54989;53.398;6.564;2022-07-23T13:19:27;7.90;;;6.43;;
60454;SDS011;54989;53.398;6.564;2022-07-23T13:21:54;7.85;;;5.85;;
60454;SDS011;54989;53.398;6.564;2022-07-23T13:24:21;7.40;;;6.05;;
60454;SDS011;54989;53.398;6.564;2022-07-23T13:26:49;7.68;;;5.88;;
60454;SDS011;54989;53.398;6.564;2022-07-23T13:29:18;7.38;;;5.82;;
60454;SDS011;54989;53.398;6.564;2022-07-23T13:31:46;8.10;;;6.10;;
60454;SDS011;54989;53.398;6.564;2022-07-23T13:34:17;7.03;;;5.47;;
60454;SDS011;54989;53.398;6.564;2022-07-23T13:36:45;6.55;;;5.57;;
60454;SDS011;54989;53.398;6.564;2022-07-23T13:39:13;7.22;;;6.07;;
60454;SDS011;54989;53.398;6.564;2022-07-23T13:41:40;7.03;;;5.78;;
60454;SDS011;54989;53.398;6.564;2022-07-23T13:44:15;6.63;;;5.28;;
60454;SDS011;54989;53.398;6.564;2022-07-23T13:46:46;6.87;;;5.87;;
60454;SDS011;54989;53.398;6.564;2022-07-23T13:49:13;6.70;;;5.65;;
60454;SDS011;54989;53.398;6.564;2022-07-23T13:51:41;6.82;;;5.65;;
60454;SDS011;54989;53.398;6.564;2022-07-23T13:54:08;5.90;;;4.75;;
60454;SDS011;54989;53.398;6.564;2022-07-23T13:56:35;6.53;;;5.10;;
60454;SDS011;54989;53.398;6.564;2022-07-23T13:59:03;6.35;;;5.00;;
60454;SDS011;54989;53.398;6.564;2022-07-23T14:01:33;6.10;;;4.60;;
60454;SDS011;54989;53.398;6.564;2022-07-23T14:04:21;6.15;;;4.63;;
60454;SDS011;54989;53.398;6.564;2022-07-23T14:06:49;5.53;;;4.88;;
60454;SDS011;54989;53.398;6.564;2022-07-23T14:09:20;5.22;;;4.40;;
60454;SDS011;54989;53.398;6.564;2022-07-23T14:11:47;5.15;;;4.38;;
60454;SDS011;54989;53.398;6.564;2022-07-23T14:14:16;5.25;;;4.32;;
60454;SDS011;54989;53.398;6.564;2022-07-23T14:16:44;5.38;;;4.65;;
60454;SDS011;54989;53.398;6.564;2022-07-23T14:19:12;5.93;;;4.65;;
60454;SDS011;54989;53.398;6.564;2022-07-23T14:21:40;4.63;;;4.15;;
60454;SDS011;54989;53.398;6.564;2022-07-23T14:24:08;5.85;;;4.50;;
60454;SDS011;54989;53.398;6.564;2022-07-23T14:26:35;5.78;;;4.13;;
60454;SDS011;54989;53.398;6.564;2022-07-23T14:29:03;4.93;;;4.05;;
60454;SDS011;54989;53.398;6.564;2022-07-23T14:31:33;4.80;;;4.00;;
60454;SDS011;54989;53.398;6.564;2022-07-23T14:34:02;5.05;;;4.13;;
60454;SDS011;54989;53.398;6.564;2022-07-23T14:36:29;4.30;;;3.65;;
60454;SDS011;54989;53.398;6.564;2022-07-23T14:38:57;4.45;;;4.05;;
60454;SDS011;54989;53.398;6.564;2022-07-23T14:41:25;4.50;;;3.90;;
60454;SDS011;54989;53.398;6.564;2022-07-23T14:43:53;4.63;;;3.85;;
60454;SDS011;54989;53.398;6.564;2022-07-23T14:46:21;5.53;;;3.50;;
60454;SDS011;54989;53.398;6.564;2022-07-23T14:48:49;4.15;;;3.55;;
60454;SDS011;54989;53.398;6.564;2022-07-23T14:51:16;4.90;;;4.03;;
60454;SDS011;54989;53.398;6.564;2022-07-23T14:53:45;3.90;;;3.50;;
60454;SDS011;54989;53.398;6.564;2022-07-23T14:56:12;3.88;;;3.50;;
60454;SDS011;54989;53.398;6.564;2022-07-23T14:59:00;3.65;;;3.22;;
60454;SDS011;54989;53.398;6.564;2022-07-23T15:01:30;4.20;;;3.58;;
60454;SDS011;54989;53.398;6.564;2022-07-23T15:04:00;4.07;;;3.10;;
60454;SDS011;54989;53.398;6.564;2022-07-23T15:06:48;3.58;;;3.22;;
60454;SDS011;54989;53.398;6.564;2022-07-23T15:09:16;4.50;;;3.47;;
60454;SDS011;54989;53.398;6.564;2022-07-23T15:11:43;6.07;;;3.40;;
60454;SDS011;54989;53.398;6.564;2022-07-23T15:14:11;4.47;;;3.42;;
60454;SDS011;54989;53.398;6.564;2022-07-23T15:16:53;6.50;;;3.58;;
60454;SDS011;54989;53.398;6.564;2022-07-23T15:19:21;8.48;;;3.30;;
60454;SDS011;54989;53.398;6.564;2022-07-23T15:21:48;5.30;;;3.00;;
60454;SDS011;54989;53.398;6.564;2022-07-23T15:24:16;4.57;;;2.97;;
60454;SDS011;54989;53.398;6.564;2022-07-23T15:26:43;4.60;;;3.33;;
60454;SDS011;54989;53.398;6.564;2022-07-23T15:29:12;4.70;;;3.10;;
60454;SDS011;54989;53.398;6.564;2022-07-23T15:31:39;4.32;;;3.42;;
60454;SDS011;54989;53.398;6.564;2022-07-23T15:34:06;4.47;;;3.03;;
60454;SDS011;54989;53.398;6.564;2022-07-23T15:36:34;4.05;;;3.38;;
60454;SDS011;54989;53.398;6.564;2022-07-23T15:39:02;4.60;;;2.63;;
60454;SDS011;54989;53.398;6.564;2022-07-23T15:41:31;3.95;;;2.72;;
60454;SDS011;54989;53.398;6.564;2022-07-23T15:43:59;3.25;;;2.95;;
60454;SDS011;54989;53.398;6.564;2022-07-23T15:46:46;3.63;;;2.67;;
60454;SDS011;54989;53.398;6.564;2022-07-23T15:49:14;4.78;;;3.13;;
60454;SDS011;54989;53.398;6.564;2022-07-23T15:51:44;4.40;;;2.75;;
60454;SDS011;54989;53.398;6.564;2022-07-23T15:54:13;3.72;;;2.70;;
60454;SDS011;54989;53.398;6.564;2022-07-23T15:56:41;3.28;;;2.60;;
60454;SDS011;54989;53.398;6.564;2022-07-23T15:59:09;3.67;;;2.67;;